Flight Track Log - Related Links

Times and Time Zones

All times are in EDT time to prevent confusion due to time zone crossing. See the SWA1035 flight status page for this flight to view local times or setup timezone preferences in your user account.

Time Position Orientation Groundspeed Altitude Reporting Facility
EDT Latitude Longitude Course Direction KTS MPH feet Rate Location/Type
Tue 05:27:21 PM 35.0481 -106.5314 81° East 202 232 7,400  Level Albuquerque Center
Tue 05:28:15 PM 35.0975 -106.5472 345° North 236 272 9,400 2,174 Climbing Albuquerque Center
Tue 05:28:30 PM 35.1075 -106.5533 333° Northwest 229 264 9,900 2,182 Climbing Albuquerque Center
Tue 05:29:32 PM 35.1667 -106.6108 322° Northwest 259 298 12,200 2,419 Climbing Albuquerque Center
Tue 05:30:34 PM 35.2333 -106.6744 322° Northwest 299 344 14,900 3,171 Climbing Albuquerque Center
Tue 05:31:35 PM 35.3142 -106.7536 321° Northwest 312 359 18,700 3,268 Climbing Albuquerque Center
Tue 05:32:37 PM 35.3819 -106.8147 324° Northwest 307 353 21,600 2,371 Climbing Albuquerque Center
Tue 05:33:39 PM 35.4669 -106.8589 337° Northwest 329 379 23,600 1,645 Climbing Albuquerque Center
Tue 05:34:41 PM 35.5617 -106.9069 338° Northwest 358 412 25,000 1,742 Climbing Albuquerque Center
Tue 05:35:43 PM 35.6672 -106.9617 337° Northwest 388 447 27,200 2,129 Climbing Albuquerque Center
Tue 05:36:45 PM 35.7825 -107.0231 337° Northwest 401 461 29,400 1,742 Climbing Albuquerque Center
Tue 05:37:47 PM 35.8847 -107.0747 338° Northwest 409 471 30,800 1,790 Climbing Albuquerque Center
Tue 05:38:49 PM 36.0050 -107.1358 338° Northwest 424 488 33,100 2,032 Climbing Albuquerque Center
Tue 05:39:51 PM 36.1086 -107.1914 337° Northwest 417 480 35,000 1,887 Climbing Albuquerque Center
Tue 05:40:53 PM 36.2219 -107.2500 337° Northwest 401 461 37,000 968 Climbing Albuquerque Center
Tue 05:41:55 PM 36.3200 -107.3011 337° Northwest 399 459 37,000  Level Albuquerque Center
Tue 05:42:56 PM 36.4414 -107.3642 337° Northwest 418 481 37,000  Level Denver Center
Tue 05:43:58 PM 36.5422 -107.4172 337° Northwest 413 475 37,000 145 Level Denver Center
Tue 05:45:00 PM 36.6614 -107.4792 337° Northwest 417 480 37,300 484 Climbing Denver Center
Tue 05:46:02 PM 36.7633 -107.5339 337° Northwest 419 482 38,000 339 Climbing Denver Center
Tue 05:47:04 PM 36.8864 -107.6000 337° Northwest 427 491 38,000  Level Denver Center
Tue 05:48:06 PM 36.9922 -107.6550 337° Northwest 431 496 38,000  Level Denver Center
Tue 05:49:08 PM 37.0894 -107.7561 320° Northwest 405 466 38,000  Level Denver Center
Tue 05:50:10 PM 37.1625 -107.8528 313° West 400 460 38,000  Level Denver Center
Tue 05:51:12 PM 37.2358 -107.9514 313° West 403 464 38,000  Level Denver Center
Tue 05:52:14 PM 37.3189 -108.0603 314° West 391 450 38,000  Level Denver Center
Tue 05:53:16 PM 37.3900 -108.1547 313° West 390 449 38,000  Level Denver Center
Tue 05:54:18 PM 37.4739 -108.2667 313° West 393 452 38,000  Level Denver Center
Tue 05:55:20 PM 37.5436 -108.3617 313° West 389 448 38,000  Level Denver Center
Tue 05:56:22 PM 37.6264 -108.4697 314° West 385 443 38,000  Level Denver Center
Tue 05:57:24 PM 37.6961 -108.5642 313° West 386 444 38,000  Level Denver Center
Tue 05:58:26 PM 37.7769 -108.6744 313° West 385 443 38,000  Level Denver Center
Tue 05:59:28 PM 37.8481 -108.7708 313° West 391 450 38,000  Level Denver Center
Tue 06:00:30 PM 37.9294 -108.8789 314° West 382 440 38,000  Level Denver Center
Tue 06:01:32 PM 37.9978 -108.9722 313° West 377 434 38,000  Level Denver Center
Tue 06:02:34 PM 38.0767 -109.0811 313° West 381 438 38,000  Level Denver Center
Tue 06:03:36 PM 38.1456 -109.1744 313° West 381 438 38,000  Level Denver Center
Tue 06:04:38 PM 38.2283 -109.2886 313° West 389 448 38,000  Level Denver Center
Tue 06:05:40 PM 38.2983 -109.3842 313° West 386 444 38,000  Level Denver Center
Tue 06:06:42 PM 38.3800 -109.4983 312° West 388 447 38,000  Level Denver Center
Tue 06:07:44 PM 38.4508 -109.5956 313° West 391 450 38,000  Level Denver Center
Tue 06:08:46 PM 38.5314 -109.7089 312° West 388 447 38,000  Level Denver Center
Tue 06:09:48 PM 38.6011 -109.8053 313° West 385 443 38,000  Level Denver Center
Tue 06:10:50 PM 38.6678 -109.8994 312° West 379 436 38,000  Level Denver Center
Tue 06:11:52 PM 38.7481 -110.0111 313° West 379 436 38,000  Level Denver Center
Tue 06:13:05 PM 38.8264 -110.1222 312° West 373 429 38,000  Level Salt Lake Center
Tue 06:13:56 PM 38.8942 -110.2167 313° West 379 436 38,000  Level Denver Center
Tue 06:14:58 PM 38.9600 -110.3106 312° West 371 427 38,000  Level Denver Center
Tue 06:16:00 PM 39.0367 -110.4200 312° West 368 423 38,000  Level Denver Center
Tue 06:17:02 PM 39.1036 -110.5158 312° West 372 428 38,000  Level Denver Center
Tue 06:18:13 PM 39.1800 -110.6264 312° West 370 426 38,000  Level Salt Lake Center
Tue 06:19:14 PM 39.2597 -110.7403 312° West 377 434 38,000  Level Salt Lake Center
Tue 06:20:16 PM 39.3275 -110.8381 312° West 380 437 38,000  Level Salt Lake Center
Tue 06:21:18 PM 39.4075 -110.9531 312° West 381 438 38,000  Level Salt Lake Center
Tue 06:22:19 PM 39.4747 -111.0508 312° West 380 437 38,000  Level Salt Lake Center
Tue 06:23:21 PM 39.5522 -111.1647 311° West 378 435 38,000  Level Salt Lake Center
Tue 06:24:22 PM 39.6197 -111.2633 312° West 378 435 38,000  Level Salt Lake Center
Tue 06:25:24 PM 39.6961 -111.3744 312° West 382 440 38,000  Level Salt Lake Center
Tue 06:26:26 PM 39.7664 -111.4792 311° West 384 442 38,000  Level Salt Lake Center
Tue 06:27:27 PM 39.8336 -111.5797 311° West 385 443 38,000  Level Salt Lake Center
Tue 06:28:29 PM 39.9106 -111.6889 313° West 390 449 38,000  Level Salt Lake Center
Tue 06:29:30 PM 39.9797 -111.7944 311° West 384 442 38,000  Level Salt Lake Center
Tue 06:30:32 PM 40.0508 -111.8989 312° West 386 444 38,000  Level Salt Lake Center
Tue 06:31:33 PM 40.1206 -112.0042 311° West 382 440 38,000  Level Salt Lake Center
Tue 06:32:35 PM 40.1903 -112.1083 311° West 380 437 38,000  Level Salt Lake Center
Tue 06:33:37 PM 40.2725 -112.2325 311° West 375 432 38,000  Level Salt Lake Center
Tue 06:34:38 PM 40.3400 -112.3353 311° West 372 428 38,000  Level Salt Lake Center
Tue 06:35:40 PM 40.4067 -112.4367 311° West 368 423 38,000  Level Salt Lake Center
Tue 06:36:41 PM 40.4739 -112.5394 311° West 371 427 38,000  Level Salt Lake Center
Tue 06:37:43 PM 40.5411 -112.6422 311° West 372 428 38,000  Level Salt Lake Center
Tue 06:38:45 PM 40.6089 -112.7458 311° West 373 429 38,000  Level Salt Lake Center
Tue 06:39:46 PM 40.6758 -112.8478 311° West 369 425 38,000  Level Salt Lake Center
Tue 06:40:48 PM 40.7408 -112.9508 310° West 366 421 38,000  Level Salt Lake Center
Tue 06:41:49 PM 40.8069 -113.0522 311° West 364 419 38,000 195 Level Salt Lake Center
Tue 06:42:51 PM 40.8847 -113.1739 310° West 362 417 38,400 585 Climbing Salt Lake Center
Tue 06:43:52 PM 40.9503 -113.2769 310° West 367 422 39,200 683 Climbing Salt Lake Center
Tue 06:44:54 PM 41.0158 -113.3797 310° West 365 420 39,800 387 Climbing Salt Lake Center
Tue 06:45:56 PM 41.0822 -113.4861 310° West 372 428 40,000 98 Climbing Salt Lake Center
Tue 06:46:57 PM 41.1506 -113.5936 310° West 378 435 40,000  Level Salt Lake Center
Tue 06:47:59 PM 41.2175 -113.7011 310° West 378 435 40,000  Level Salt Lake Center
Tue 06:49:00 PM 41.2842 -113.8064 310° West 375 432 40,000  Level Salt Lake Center
Tue 06:50:02 PM 41.3508 -113.9111 310° West 373 429 40,000  Level Salt Lake Center
Tue 06:51:03 PM 41.4303 -114.0386 310° West 373 429 40,000  Level Salt Lake Center
Tue 06:52:05 PM 41.4986 -114.1458 310° West 378 435 40,000  Level Salt Lake Center
Tue 06:53:06 PM 41.5653 -114.2547 309° West 380 437 40,000  Level Salt Lake Center
Tue 06:54:08 PM 41.6317 -114.3614 310° West 375 432 40,000  Level Salt Lake Center
Tue 06:55:09 PM 41.6972 -114.4686 309° West 374 430 40,000  Level Salt Lake Center
Tue 06:56:11 PM 41.7678 -114.5833 310° West 371 427 40,000  Level Salt Lake Center
Tue 06:57:13 PM 41.8308 -114.6864 309° West 373 429 40,000  Level Salt Lake Center
Tue 06:58:14 PM 41.9047 -114.8097 309° West 375 432 40,000  Level Salt Lake Center
Tue 06:59:16 PM 41.9667 -114.9097 310° West 368 423 40,000  Level Salt Lake Center
Tue 07:00:17 PM 42.0394 -115.0289 309° West 369 425 40,000  Level Salt Lake Center
Tue 07:01:19 PM 42.0997 -115.1325 308° West 369 425 40,000  Level Salt Lake Center
Tue 07:02:20 PM 42.1619 -115.2347 309° West 368 423 40,000  Level Salt Lake Center
Tue 07:03:22 PM 42.2342 -115.3556 309° West 369 425 40,000  Level Salt Lake Center
Tue 07:04:24 PM 42.2956 -115.4592 309° West 369 425 40,000  Level Salt Lake Center
Tue 07:05:25 PM 42.3672 -115.5792 309° West 367 422 40,000  Level Salt Lake Center
Tue 07:06:27 PM 42.4281 -115.6842 308° West 369 425 40,000  Level Salt Lake Center
Tue 07:07:28 PM 42.4894 -115.7875 309° West 369 425 40,000  Level Salt Lake Center
Tue 07:08:30 PM 42.5608 -115.9094 309° West 368 423 40,000  Level Salt Lake Center
Tue 07:09:31 PM 42.6211 -116.0133 308° West 366 421 40,000  Level Salt Lake Center
Tue 07:10:33 PM 42.6911 -116.1333 308° West 363 418 40,000  Level Salt Lake Center
Tue 07:11:34 PM 42.7517 -116.2361 309° West 363 418 40,000  Level Salt Lake Center
Tue 07:12:36 PM 42.8211 -116.3583 308° West 366 421 40,000  Level Salt Lake Center
Tue 07:13:38 PM 42.8811 -116.4633 308° West 367 422 40,000  Level Salt Lake Center
Tue 07:14:39 PM 42.9419 -116.5686 308° West 368 423 40,000  Level Salt Lake Center
Tue 07:15:41 PM 43.0128 -116.6931 308° West 370 426 40,000  Level Salt Lake Center
Tue 07:16:42 PM 43.0728 -116.7981 308° West 366 421 40,000  Level Salt Lake Center
Tue 07:17:44 PM 43.1428 -116.9228 308° West 367 422 40,000  Level Salt Lake Center
Tue 07:18:45 PM 43.2031 -117.0289 308° West 366 421 40,000  Level Salt Lake Center
Tue 07:19:47 PM 43.2622 -117.1350 307° West 365 420 40,000  Level Salt Lake Center
Tue 07:20:48 PM 43.3319 -117.2589 308° West 363 418 40,000  Level Salt Lake Center
Tue 07:21:50 PM 43.3917 -117.3656 308° West 363 418 40,000  Level Salt Lake Center
Tue 07:22:52 PM 43.4597 -117.4894 307° West 362 417 40,000  Level Salt Lake Center
Tue 07:23:53 PM 43.5189 -117.5953 308° West 364 419 40,000  Level Salt Lake Center
Tue 07:24:55 PM 43.5781 -117.7006 308° West 364 419 40,000  Level Salt Lake Center
Tue 07:25:57 PM 43.6467 -117.8264 307° West 367 422 40,000  Level Salt Lake Center
Tue 07:26:58 PM 43.7050 -117.9336 307° West 364 419 40,000  Level Salt Lake Center
Tue 07:28:00 PM 43.7728 -118.0575 307° West 362 417 40,000  Level Salt Lake Center
Tue 07:29:02 PM 43.8303 -118.1650 307° West 362 417 40,000  Level Salt Lake Center
Tue 07:30:03 PM 43.8889 -118.2728 307° West 364 419 40,000  Level Salt Lake Center
Tue 07:31:05 PM 43.9586 -118.3992 307° West 366 421 40,000  Level Salt Lake Center
Tue 07:32:07 PM 44.0181 -118.5100 307° West 370 426 40,000  Level Salt Lake Center
Tue 07:33:09 PM 44.0864 -118.6378 307° West 371 427 40,000  Level Salt Lake Center
Tue 07:34:10 PM 44.1442 -118.7475 306° West 368 423 40,000  Level Salt Lake Center
Tue 07:35:07 PM 44.1989 -118.8564 305° West 364 419 40,000  Level Seattle Center
Tue 07:36:08 PM 44.2556 -118.9650 306° West 362 417 40,000  Level Seattle Center
Tue 07:37:09 PM 44.3242 -119.0933 307° West 366 421 40,000  Level Seattle Center
Tue 07:38:10 PM 44.3819 -119.2036 306° West 367 422 40,000  Level Seattle Center
Tue 07:39:11 PM 44.4436 -119.3181 307° West 371 427 40,000  Level Seattle Center
Tue 07:40:12 PM 44.5072 -119.4331 308° West 372 428 40,000  Level Seattle Center
Tue 07:41:13 PM 44.5661 -119.5503 305° West 370 426 40,000  Level Seattle Center
Tue 07:42:14 PM 44.6261 -119.6681 306° West 372 428 40,000  Level Seattle Center
Tue 07:43:15 PM 44.6886 -119.7839 307° West 373 429 40,000  Level Seattle Center
Tue 07:44:16 PM 44.7622 -119.9242 306° West 372 428 40,000  Level Seattle Center
Tue 07:45:17 PM 44.8247 -120.0406 307° West 375 432 40,000  Level Seattle Center
Tue 07:46:18 PM 44.8867 -120.1586 307° West 376 433 40,000 -738 Level Seattle Center
Tue 07:47:19 PM 44.9419 -120.2806 303° West 375 432 38,500 -2,016 Descending Seattle Center
Tue 07:48:20 PM 44.9956 -120.4061 301° West 375 432 35,900 -2,852 Descending Seattle Center
Tue 07:49:21 PM 45.0489 -120.5350 300° West 381 438 32,700 -2,754 Descending Seattle Center
Tue 07:50:22 PM 45.1036 -120.6606 302° West 378 435 30,300 -2,213 Descending Seattle Center
Tue 07:51:23 PM 45.1669 -120.7650 311° West 355 409 28,200 -2,033 Descending Seattle Center
Tue 07:52:23 PM 45.2244 -120.8722 307° West 351 404 26,200 -2,033 Descending Seattle Center
Tue 07:53:24 PM 45.2672 -120.9892 297° West 340 391 24,100 -1,820 Descending Seattle Center
Tue 07:54:25 PM 45.3086 -121.1050 297° West 332 382 22,500 -1,180 Descending Seattle Center
Tue 07:55:26 PM 45.3472 -121.2106 298° West 309 356 21,700 -787 Descending Seattle Center
Tue 07:56:27 PM 45.3803 -121.3022 297° West 270 311 20,900 -1,180 Descending Seattle Center
Tue 07:57:28 PM 45.4181 -121.4058 297° West 248 285 19,300 -1,377 Descending Seattle Center
Tue 07:58:29 PM 45.4469 -121.4847 298° West 238 274 18,100 -1,082 Descending Seattle Center
Tue 07:59:30 PM 45.4767 -121.5653 298° West 232 267 17,100 -1,055 Descending Seattle Center
Tue 08:00:00 PM 45.4981 -121.5967 314° West 220 253 16,500 -1,574 Descending Seattle Center
Tue 08:00:31 PM 45.5119 -121.6364 297° West 249 287 15,500 -2,055 Descending Seattle Center
Tue 08:01:13 PM 45.5081 -121.7161 266° West 266 306 14,000 -2,164 Descending Seattle Center
Tue 08:01:32 PM 45.5097 -121.7392 276° West 265 305 13,300 -2,250 Descending Seattle Center
Tue 08:02:01 PM 45.5103 -121.7989 271° West 277 319 12,200 -2,262 Descending Seattle Center
Tue 08:02:33 PM 45.5125 -121.8508 274° West 282 325 11,000 -2,262 Descending Seattle Center
Tue 08:03:02 PM 45.5119 -121.9217 269° West 290 334 9,900 -1,967 Descending Seattle Center
Tue 08:03:34 PM 45.5128 -121.9642 272° West 288 331 9,000 -1,791 Descending Seattle Center
Tue 08:04:09 PM 45.5131 -122.0417 270° West 280 322 7,900 -1,377 Descending Seattle Center
Tue 08:04:35 PM 45.5164 -122.0772 278° West 288 331 7,600 -1,309 Descending Seattle Center
Tue 08:05:04 PM 45.5125 -122.1439 265° West 277 319 6,700 -1,574 Descending Seattle Center
Tue 08:05:36 PM 45.5142 -122.1847 273° West 279 321 6,000 -1,612 Descending Seattle Center
Tue 08:06:11 PM 45.5114 -122.2553 267° West 264 304 4,900 -1,574 Descending Seattle Center
Tue 08:06:37 PM 45.5144 -122.2878 278° West 268 308 4,400 -1,475 Descending Seattle Center
Tue 08:07:12 PM 45.5106 -122.3575 265° West 228 262 3,400 -1,279 Descending Seattle Center
Tue 08:07:38 PM 45.5136 -122.3783 282° West 243 280 3,100 -1,075 Descending Seattle Center
Tue 08:08:19 PM 45.5297 -122.4297 294° West 163 188 2,200 -1,180 Descending Seattle Center
Tue 08:08:39 PM 45.5392 -122.4514 302° West 184 212 1,900 -800 Descending Seattle Center
Tue 08:09:19 PM 45.5486 -122.4806 295° West 136 157 1,400 -787 Descending Seattle Center
Tue 08:09:40 PM 45.5561 -122.4975 302° West 161 185 1,100 -655 Descending Seattle Center
Tue 08:10:14 PM 45.5658 -122.5231 299° West 128 147 800 -689 Descending Seattle Center
Tue 08:10:41 PM 45.5731 -122.5400 301° West 143 165 400 -409 Descending Seattle Center
Tue 08:11:42 PM 45.5892 -122.5822 299° West 140 161 200 -197 Descending Seattle Center

Login

Don't have an account? Register now (free) for customized features, flight alerts, and more!